createdAt,value
2019-02-04T00:00:13.558Z,17.60
2019-02-04T00:02:42.247Z,17.15
2019-02-04T00:05:10.449Z,18.42
2019-02-04T00:07:38.651Z,17.12
2019-02-04T00:10:10.051Z,18.90
2019-02-04T00:12:38.264Z,18.23
2019-02-04T00:15:08.400Z,14.78
2019-02-04T00:20:09.952Z,18.12
2019-02-04T00:22:38.161Z,21.12
2019-02-04T00:25:07.208Z,21.87
2019-02-04T00:27:35.415Z,18.65
2019-02-04T00:30:05.508Z,14.25
2019-02-04T00:32:33.784Z,15.38
2019-02-04T00:35:01.985Z,14.65
2019-02-04T00:37:30.189Z,16.42
2019-02-04T00:39:58.387Z,17.23
2019-02-04T00:42:26.592Z,17.65
2019-02-04T00:44:54.836Z,13.72
2019-02-04T00:47:23.372Z,15.00
2019-02-04T00:49:51.565Z,18.67
2019-02-04T00:52:19.768Z,15.25
2019-02-04T00:54:48.032Z,16.65
2019-02-04T00:57:16.232Z,16.37
2019-02-04T00:59:44.435Z,18.65
2019-02-04T01:02:12.916Z,17.70
2019-02-04T01:04:41.120Z,18.40
2019-02-04T01:07:09.381Z,14.25
2019-02-04T01:09:37.583Z,17.12
2019-02-04T01:12:05.790Z,19.35
2019-02-04T01:14:33.996Z,17.45
2019-02-04T01:17:03.382Z,18.80
2019-02-04T01:19:32.188Z,18.85
2019-02-04T01:22:01.059Z,16.75
2019-02-04T01:24:29.260Z,14.27
2019-02-04T01:26:57.459Z,15.78
2019-02-04T01:29:25.680Z,16.30
2019-02-04T01:31:53.871Z,17.65
2019-02-04T01:34:22.151Z,20.43
2019-02-04T01:36:50.344Z,18.35
2019-02-04T01:39:18.552Z,14.20
2019-02-04T01:41:46.760Z,15.35
2019-02-04T01:44:14.959Z,15.78
2019-02-04T01:46:43.156Z,17.42
2019-02-04T01:49:11.639Z,18.82
2019-02-04T01:51:39.835Z,16.75
2019-02-04T01:54:08.047Z,13.60
2019-02-04T01:56:36.235Z,16.00
2019-02-04T01:59:04.445Z,13.38
2019-02-04T02:01:32.652Z,15.58
2019-02-04T02:04:00.851Z,14.87
2019-02-04T02:06:29.035Z,17.48
2019-02-04T02:08:57.236Z,15.78
2019-02-04T02:11:25.443Z,16.87
2019-02-04T02:13:53.635Z,17.85
2019-02-04T02:16:21.848Z,14.75
2019-02-04T02:18:50.040Z,15.23
2019-02-04T02:21:18.251Z,15.85
2019-02-04T02:23:46.449Z,15.78
2019-02-04T02:26:14.648Z,14.05
2019-02-04T02:28:42.846Z,15.45
2019-02-04T02:31:11.044Z,16.62
2019-02-04T02:33:39.241Z,13.15
2019-02-04T02:36:07.824Z,15.08
2019-02-04T02:38:36.029Z,16.80
2019-02-04T02:41:04.232Z,17.00
2019-02-04T02:43:32.424Z,27.17
2019-02-04T02:46:00.632Z,28.67
2019-02-04T02:48:28.837Z,26.37
2019-02-04T02:50:57.048Z,30.65
2019-02-04T02:53:25.246Z,23.22
2019-02-04T02:55:53.460Z,27.93
2019-02-04T02:58:21.698Z,26.33
2019-02-04T03:00:49.940Z,21.48
2019-02-04T03:03:18.151Z,17.77
2019-02-04T03:05:46.351Z,21.90
2019-02-04T03:08:14.932Z,20.00
2019-02-04T03:10:43.142Z,21.87
2019-02-04T03:13:11.348Z,16.40
2019-02-04T03:15:39.555Z,17.77
2019-02-04T03:18:07.751Z,17.48
2019-02-04T03:20:35.951Z,15.18
2019-02-04T03:23:04.640Z,18.67
2019-02-04T03:25:32.838Z,17.55
2019-02-04T03:28:01.095Z,14.53
2019-02-04T03:30:31.366Z,16.50
2019-02-04T03:32:59.563Z,16.00
2019-02-04T03:35:27.748Z,17.20
2019-02-04T03:37:55.970Z,13.60
2019-02-04T03:40:29.515Z,18.87
2019-02-04T03:42:57.740Z,12.45
2019-02-04T03:45:25.961Z,15.53
2019-02-04T03:48:04.498Z,12.80
2019-02-04T03:50:24.148Z,16.25
2019-02-04T03:52:53.064Z,17.73
2019-02-04T03:55:21.263Z,16.70
2019-02-04T03:57:49.468Z,14.40
2019-02-04T04:00:20.559Z,19.48
2019-02-04T04:02:48.770Z,16.05
2019-02-04T04:05:16.968Z,21.68
2019-02-04T04:07:45.448Z,16.52
2019-02-04T04:10:14.018Z,18.42
2019-02-04T04:12:42.221Z,13.40
2019-02-04T04:15:12.355Z,14.63
2019-02-04T04:17:40.567Z,18.50
2019-02-04T04:20:11.100Z,15.23
2019-02-04T04:22:39.484Z,16.23
2019-02-04T04:25:10.394Z,17.55
2019-02-04T04:27:38.601Z,14.78
2019-02-04T04:30:12.877Z,19.00
2019-02-04T04:32:41.085Z,16.73
2019-02-04T04:35:09.275Z,16.17
2019-02-04T04:37:37.480Z,14.13
2019-02-04T04:40:08.895Z,14.15
2019-02-04T04:42:37.091Z,17.75
2019-02-04T04:45:08.090Z,19.98
2019-02-04T04:47:36.297Z,21.07
2019-02-04T04:50:06.707Z,16.55
2019-02-04T04:52:34.919Z,16.02
2019-02-04T04:55:03.795Z,18.80
2019-02-04T04:57:31.995Z,15.35
2019-02-04T05:00:00.327Z,16.65
2019-02-04T05:02:28.680Z,20.57
2019-02-04T05:04:57.261Z,15.50
2019-02-04T05:07:25.455Z,17.10
2019-02-04T05:09:53.945Z,14.85
2019-02-04T05:12:22.144Z,18.85
2019-02-04T05:14:50.357Z,18.05
2019-02-04T05:17:18.552Z,16.73
2019-02-04T05:19:46.761Z,15.80
2019-02-04T05:22:15.141Z,19.52
2019-02-04T05:24:43.351Z,16.35
2019-02-04T05:27:11.555Z,21.33
2019-02-04T05:29:39.781Z,18.70
2019-02-04T05:32:07.976Z,20.35
2019-02-04T05:34:36.192Z,18.75
2019-02-04T05:37:04.765Z,17.52
2019-02-04T05:39:32.971Z,21.07
2019-02-04T05:42:01.189Z,21.75
2019-02-04T05:44:29.399Z,21.87
2019-02-04T05:46:57.597Z,17.45
2019-02-04T05:49:25.813Z,17.42
2019-02-04T05:51:55.143Z,19.90
2019-02-04T05:54:23.561Z,20.62
2019-02-04T05:56:51.769Z,20.90
2019-02-04T05:59:19.979Z,22.85
2019-02-04T06:01:48.179Z,18.10
2019-02-04T06:04:16.384Z,27.37
2019-02-04T06:06:44.581Z,27.32
2019-02-04T06:09:13.097Z,26.55
2019-02-04T06:11:41.297Z,22.93
2019-02-04T06:14:09.526Z,26.60
2019-02-04T06:16:37.725Z,25.15
2019-02-04T06:19:05.925Z,23.07
2019-02-04T06:21:34.150Z,28.45
2019-02-04T06:24:02.743Z,20.80
2019-02-04T06:26:30.955Z,22.95
2019-02-04T06:28:59.151Z,23.57
2019-02-04T06:31:27.371Z,21.75
2019-02-04T06:33:56.133Z,25.85
2019-02-04T06:36:24.352Z,23.20
2019-02-04T06:38:52.919Z,28.50
2019-02-04T06:41:21.130Z,27.82
2019-02-04T06:43:49.327Z,25.88
2019-02-04T06:46:17.551Z,24.35
2019-02-04T06:48:45.739Z,28.70
2019-02-04T06:51:14.256Z,27.00
2019-02-04T06:53:42.460Z,28.50
2019-02-04T06:56:10.672Z,32.38
2019-02-04T06:58:38.876Z,31.73
2019-02-04T07:01:07.088Z,24.12
2019-02-04T07:03:35.288Z,26.30
2019-02-04T07:06:03.496Z,24.90
2019-02-04T07:08:31.714Z,26.57
2019-02-04T07:11:00.289Z,24.87
2019-02-04T07:13:28.489Z,32.95
2019-02-04T07:15:56.697Z,23.45
2019-02-04T07:18:24.895Z,22.22
2019-02-04T07:20:53.108Z,25.97
2019-02-04T07:23:21.348Z,26.25
2019-02-04T07:25:49.552Z,23.15
2019-02-04T07:28:18.032Z,24.67
2019-02-04T07:30:46.240Z,25.27
2019-02-04T07:33:14.441Z,19.15
2019-02-04T07:35:42.658Z,22.85
2019-02-04T07:38:10.844Z,20.08
2019-02-04T07:40:39.048Z,21.85
2019-02-04T07:43:07.256Z,18.80
2019-02-04T07:45:35.470Z,19.42
2019-02-04T07:48:03.674Z,16.65
2019-02-04T07:50:31.864Z,16.17
2019-02-04T07:53:00.076Z,20.50
2019-02-04T07:55:28.279Z,17.98
2019-02-04T07:57:57.325Z,19.40
2019-02-04T08:00:31.977Z,14.98
2019-02-04T08:03:00.182Z,17.30
2019-02-04T08:05:28.462Z,17.37
2019-02-04T08:07:56.918Z,17.10
2019-02-04T08:10:25.112Z,15.88
2019-02-04T08:13:01.131Z,17.80
2019-02-04T08:15:28.898Z,17.92
2019-02-04T08:17:57.648Z,18.95
2019-02-04T08:20:26.581Z,19.67
2019-02-04T08:22:54.795Z,21.68
2019-02-04T08:25:25.840Z,20.95
2019-02-04T08:27:52.931Z,15.48
2019-02-04T08:30:32.461Z,23.22
2019-02-04T08:33:00.745Z,19.92
2019-02-04T08:35:28.999Z,22.10
2019-02-04T08:37:57.212Z,19.00
2019-02-04T08:40:25.436Z,13.35
2019-02-04T08:42:54.005Z,17.85
2019-02-04T08:45:22.203Z,16.27
2019-02-04T08:47:50.409Z,14.10
2019-02-04T08:50:20.552Z,16.05
2019-02-04T08:52:48.757Z,12.28
2019-02-04T08:55:16.954Z,14.55
2019-02-04T08:57:45.162Z,14.03
2019-02-04T09:00:18.744Z,18.00
2019-02-04T09:02:46.951Z,15.83
2019-02-04T09:05:16.184Z,17.87
2019-02-04T09:07:44.539Z,15.65
2019-02-04T09:10:16.005Z,15.10
2019-02-04T09:12:44.199Z,15.00
2019-02-04T09:15:16.231Z,17.57
2019-02-04T09:17:44.236Z,16.73
2019-02-04T09:20:15.189Z,19.00
2019-02-04T09:22:43.464Z,16.07
2019-02-04T09:25:14.240Z,13.60
2019-02-04T09:27:42.450Z,15.28
2019-02-04T09:30:19.477Z,13.58
2019-02-04T09:32:47.671Z,14.23
2019-02-04T09:35:20.562Z,13.83
2019-02-04T09:37:48.760Z,15.90
2019-02-04T09:40:22.555Z,12.58
2019-02-04T09:42:51.028Z,13.03
2019-02-04T09:45:19.243Z,13.68
2019-02-04T09:47:47.440Z,15.68
2019-02-04T09:50:21.732Z,15.63
2019-02-04T09:52:48.217Z,17.10
2019-02-04T09:55:24.694Z,11.38
2019-02-04T09:57:52.894Z,12.55
2019-02-04T10:00:23.641Z,11.85
2019-02-04T10:02:51.843Z,13.30
2019-02-04T10:05:20.291Z,13.35
2019-02-04T10:07:48.491Z,14.13
2019-02-04T10:10:21.830Z,11.33
2019-02-04T10:12:52.497Z,11.10
2019-02-04T10:15:22.411Z,11.70
2019-02-04T10:17:50.609Z,17.50
2019-02-04T10:20:18.887Z,13.30
2019-02-04T10:22:47.092Z,13.68
2019-02-04T10:25:21.733Z,12.63
2019-02-04T10:27:50.014Z,14.23
2019-02-04T10:30:20.343Z,13.55
2019-02-04T10:32:48.674Z,13.35
2019-02-04T10:35:17.422Z,14.03
2019-02-04T10:37:47.341Z,14.15
2019-02-04T10:40:20.477Z,14.93
2019-02-04T10:42:48.715Z,14.98
2019-02-04T10:45:18.442Z,14.55
2019-02-04T10:47:46.752Z,16.07
2019-02-04T10:50:23.849Z,13.95
2019-02-04T10:52:52.126Z,13.45
2019-02-04T10:55:20.357Z,14.00
2019-02-04T10:57:48.597Z,13.18
2019-02-04T11:00:25.715Z,16.10
2019-02-04T11:02:53.951Z,13.85
2019-02-04T11:05:24.613Z,13.40
2019-02-04T11:07:52.901Z,16.73
2019-02-04T11:10:23.058Z,12.63
2019-02-04T11:12:51.333Z,20.43
2019-02-04T11:15:19.647Z,14.03
2019-02-04T11:17:47.848Z,14.75
2019-02-04T11:20:19.441Z,16.75
2019-02-04T11:22:47.684Z,16.12
2019-02-04T11:25:15.938Z,14.35
2019-02-04T11:27:44.229Z,12.45
2019-02-04T11:30:18.324Z,15.50
2019-02-04T11:32:46.524Z,11.33
2019-02-04T11:35:14.816Z,12.95
2019-02-04T11:37:43.025Z,14.58
2019-02-04T11:40:38.140Z,14.40
2019-02-04T11:43:06.739Z,9.78
2019-02-04T11:45:35.049Z,11.73
2019-02-04T11:48:04.921Z,10.55
2019-02-04T11:50:33.168Z,12.37
2019-02-04T11:53:01.380Z,8.40
2019-02-04T11:55:29.582Z,9.10
2019-02-04T11:57:57.797Z,9.00
2019-02-04T12:00:30.604Z,8.48
2019-02-04T12:03:00.453Z,9.55
2019-02-04T12:05:28.651Z,8.85
2019-02-04T12:07:56.886Z,12.28
2019-02-04T12:10:30.812Z,9.35
2019-02-04T12:12:59.395Z,9.73
2019-02-04T12:15:27.595Z,8.00
2019-02-04T12:17:56.122Z,10.25
2019-02-04T12:20:24.320Z,10.40
2019-02-04T12:22:52.538Z,8.08
2019-02-04T12:25:23.428Z,9.78
2019-02-04T12:27:52.012Z,7.50
2019-02-04T12:30:32.207Z,7.30
2019-02-04T12:33:01.251Z,7.00
2019-02-04T12:35:29.441Z,7.20
2019-02-04T12:37:57.648Z,7.17
2019-02-04T12:40:25.844Z,9.60
2019-02-04T12:42:54.438Z,6.92
2019-02-04T12:45:28.128Z,7.10
2019-02-04T12:47:56.856Z,4.42
2019-02-04T12:50:25.053Z,5.40
2019-02-04T12:52:53.264Z,6.75
2019-02-04T12:55:31.636Z,5.78
2019-02-04T12:57:59.874Z,6.00
2019-02-04T13:00:29.480Z,5.72
2019-02-04T13:02:57.694Z,6.05
2019-02-04T13:05:35.015Z,6.95
2019-02-04T13:08:03.769Z,6.12
2019-02-04T13:10:32.024Z,10.30
2019-02-04T13:13:00.249Z,7.12
2019-02-04T13:15:28.440Z,5.50
2019-02-04T13:17:56.648Z,5.47
2019-02-04T13:20:24.840Z,5.60
2019-02-04T13:22:53.044Z,5.97
2019-02-04T13:25:26.428Z,4.83
2019-02-04T13:27:54.673Z,4.62
2019-02-04T13:30:27.638Z,5.22
2019-02-04T13:32:56.167Z,5.33
2019-02-04T13:35:24.372Z,5.95
2019-02-04T13:37:53.044Z,6.25
2019-02-04T13:40:26.580Z,6.97
2019-02-04T13:42:54.842Z,4.12
2019-02-04T13:45:23.052Z,6.85
2019-02-04T13:47:53.460Z,5.25
2019-02-04T13:50:22.706Z,5.55
2019-02-04T13:52:51.845Z,4.40
2019-02-04T13:55:23.120Z,4.97
2019-02-04T13:57:51.332Z,4.28
2019-02-04T14:00:19.539Z,5.10
2019-02-04T14:02:58.510Z,7.37
2019-02-04T14:05:17.708Z,4.37
2019-02-04T14:07:45.903Z,4.42
2019-02-04T14:10:20.261Z,6.55
2019-02-04T14:12:48.458Z,3.87
2019-02-04T14:15:17.204Z,4.80
2019-02-04T14:17:45.387Z,5.70
2019-02-04T14:20:18.883Z,5.08
2019-02-04T14:22:47.076Z,6.47
2019-02-04T14:25:16.156Z,5.08
2019-02-04T14:27:44.340Z,5.97
2019-02-04T14:30:18.734Z,4.83
2019-02-04T14:32:47.209Z,4.78
2019-02-04T14:35:15.460Z,6.60
2019-02-04T14:37:45.100Z,9.88
2019-02-04T14:40:18.716Z,6.55
2019-02-04T14:42:45.697Z,9.03
2019-02-04T14:47:49.253Z,5.50
2019-02-04T14:50:26.809Z,4.45
2019-02-04T14:53:16.653Z,10.55
2019-02-04T14:55:48.120Z,9.87
2019-02-04T14:58:25.307Z,5.80
2019-02-04T15:01:20.440Z,7.10
2019-02-04T15:04:00.825Z,4.87
2019-02-04T15:06:38.426Z,7.03
2019-02-04T15:09:26.505Z,7.08
2019-02-04T15:12:19.092Z,10.38
2019-02-04T15:14:56.500Z,8.15
2019-02-04T15:17:25.852Z,7.75
2019-02-04T15:20:16.940Z,8.58
2019-02-04T15:22:57.190Z,9.33
2019-02-04T15:25:46.771Z,11.05
2019-02-04T15:28:27.024Z,9.95
2019-02-04T15:31:04.628Z,14.20
2019-02-04T15:33:42.040Z,8.95
2019-02-04T15:36:19.323Z,12.10
2019-02-04T15:39:12.016Z,9.55
2019-02-04T15:41:55.105Z,10.20
2019-02-04T15:44:38.408Z,9.35
2019-02-04T15:47:12.448Z,9.43
2019-02-04T15:50:12.250Z,10.03
2019-02-04T15:52:45.486Z,9.67
2019-02-04T15:55:13.610Z,8.28
2019-02-04T15:57:41.896Z,13.10
2019-02-04T16:00:12.740Z,10.72
2019-02-04T16:02:40.964Z,7.55
2019-02-04T16:05:10.283Z,9.35
2019-02-04T16:07:38.768Z,16.50
2019-02-04T16:10:15.242Z,10.43
2019-02-04T16:12:43.439Z,20.85
2019-02-04T16:15:13.587Z,34.63
2019-02-04T16:17:41.789Z,20.37
2019-02-04T16:20:19.040Z,17.00
2019-02-04T16:22:57.753Z,12.58
2019-02-04T16:25:17.240Z,8.70
2019-02-04T16:27:45.444Z,9.00
2019-02-04T16:30:19.035Z,9.05
2019-02-04T16:32:47.248Z,8.70
2019-02-04T16:35:19.361Z,8.00
2019-02-04T16:37:48.304Z,9.75
2019-02-04T16:40:21.805Z,7.00
2019-02-04T16:42:50.047Z,9.00
2019-02-04T16:45:20.692Z,6.90
2019-02-04T16:47:49.328Z,9.30
2019-02-04T16:50:20.794Z,8.58
2019-02-04T16:52:48.988Z,11.78
2019-02-04T16:55:17.205Z,14.15
2019-02-04T16:57:45.406Z,11.75
2019-02-04T17:00:19.444Z,13.98
2019-02-04T17:02:47.918Z,18.07
2019-02-04T17:05:16.365Z,17.70
2019-02-04T17:07:44.564Z,22.45
2019-02-04T17:10:17.468Z,17.48
2019-02-04T17:12:45.669Z,14.60
2019-02-04T17:15:13.871Z,11.85
2019-02-04T17:17:42.246Z,13.48
2019-02-04T17:20:13.718Z,12.93
2019-02-04T17:22:41.912Z,10.98
2019-02-04T17:25:10.115Z,12.90
2019-02-04T17:27:38.389Z,9.95
2019-02-04T17:30:12.796Z,9.75
2019-02-04T17:32:41.275Z,13.55
2019-02-04T17:35:09.488Z,16.45
2019-02-04T17:37:37.699Z,10.15
2019-02-04T17:40:09.165Z,12.78
2019-02-04T17:42:37.372Z,12.70
2019-02-04T17:45:08.775Z,17.60
2019-02-04T17:47:36.972Z,15.05
2019-02-04T17:50:11.873Z,11.18
2019-02-04T17:52:40.152Z,12.88
2019-02-04T17:55:13.951Z,13.40
2019-02-04T17:57:42.153Z,14.50
2019-02-04T18:00:17.692Z,11.25
2019-02-04T18:02:45.877Z,14.13
2019-02-04T18:05:14.087Z,21.68
2019-02-04T18:07:42.300Z,20.35
2019-02-04T18:10:18.224Z,17.55
2019-02-04T18:12:46.796Z,13.53
2019-02-04T18:15:18.048Z,15.93
2019-02-04T18:17:46.262Z,12.88
2019-02-04T18:20:15.276Z,15.00
2019-02-04T18:22:43.497Z,13.00
2019-02-04T18:25:16.596Z,14.47
2019-02-04T18:27:44.803Z,16.77
2019-02-04T18:30:24.239Z,17.65
2019-02-04T18:32:52.470Z,21.30
2019-02-04T18:35:20.920Z,15.98
2019-02-04T18:37:49.296Z,15.43
2019-02-04T18:40:19.141Z,16.95
2019-02-04T18:42:47.723Z,16.77
2019-02-04T18:45:24.435Z,15.80
2019-02-04T18:47:52.642Z,15.35
2019-02-04T18:50:21.765Z,20.52
2019-02-04T18:52:50.349Z,17.15
2019-02-04T18:55:27.216Z,19.82
2019-02-04T18:57:55.427Z,15.18
2019-02-04T19:00:25.672Z,17.70
2019-02-04T19:02:53.887Z,17.10
2019-02-04T19:05:22.467Z,22.05
2019-02-04T19:07:50.682Z,27.58
2019-02-04T19:10:20.720Z,22.58
2019-02-04T19:12:48.938Z,22.20
2019-02-04T19:15:19.729Z,22.48
2019-02-04T19:17:48.328Z,19.40
2019-02-04T19:20:21.608Z,18.75
2019-02-04T19:22:49.815Z,18.62
2019-02-04T19:25:19.764Z,21.48
2019-02-04T19:27:48.113Z,20.12
2019-02-04T19:30:27.865Z,17.50
2019-02-04T19:32:56.453Z,15.85
2019-02-04T19:35:24.645Z,24.37
2019-02-04T19:37:52.852Z,21.05
2019-02-04T19:40:21.059Z,21.07
2019-02-04T19:42:49.306Z,20.02
2019-02-04T19:45:22.669Z,18.57
2019-02-04T19:47:51.258Z,14.93
2019-02-04T19:50:31.179Z,19.73
2019-02-04T19:52:59.388Z,19.17
2019-02-04T19:55:27.588Z,20.25
2019-02-04T19:57:55.791Z,19.07
2019-02-04T20:00:24.259Z,19.77
2019-02-04T20:02:53.315Z,17.57
2019-02-04T20:05:29.733Z,18.12
2019-02-04T20:07:58.308Z,21.00
2019-02-04T20:10:29.879Z,20.75
2019-02-04T20:12:58.175Z,19.02
2019-02-04T20:15:28.388Z,17.90
2019-02-04T20:17:56.617Z,18.82
2019-02-04T20:20:25.155Z,22.15
2019-02-04T20:22:53.351Z,21.00
2019-02-04T20:25:23.703Z,20.90
2019-02-04T20:27:51.901Z,20.17
2019-02-04T20:30:23.380Z,18.75
2019-02-04T20:32:51.893Z,21.65
2019-02-04T20:35:20.126Z,17.60
2019-02-04T20:37:48.320Z,19.90
2019-02-04T20:40:22.336Z,18.37
2019-02-04T20:42:50.537Z,19.87
2019-02-04T20:45:20.467Z,22.55
2019-02-04T20:47:50.304Z,22.73
2019-02-04T20:50:21.312Z,19.77
2019-02-04T20:52:49.517Z,20.62
2019-02-04T20:55:17.730Z,22.22
2019-02-04T20:57:45.927Z,20.77
2019-02-04T21:00:17.576Z,17.85
2019-02-04T21:02:45.764Z,22.73
2019-02-04T21:05:13.992Z,17.90
2019-02-04T21:07:42.272Z,16.75
2019-02-04T21:10:13.120Z,19.12
2019-02-04T21:12:41.319Z,17.98
2019-02-04T21:15:11.856Z,20.92
2019-02-04T21:17:40.068Z,21.37
2019-02-04T21:20:16.478Z,25.23
2019-02-04T21:22:44.697Z,24.25
2019-02-04T21:25:12.912Z,18.25
2019-02-04T21:27:41.108Z,17.55
2019-02-04T21:30:21.764Z,22.75
2019-02-04T21:32:49.961Z,21.25
2019-02-04T21:35:18.181Z,23.65
2019-02-04T21:37:46.367Z,21.27
2019-02-04T21:40:16.215Z,24.47
2019-02-04T21:42:44.868Z,24.98
2019-02-04T21:45:17.689Z,20.85
2019-02-04T21:47:45.876Z,22.02
2019-02-04T21:50:19.965Z,20.90
2019-02-04T21:52:48.168Z,21.68
2019-02-04T21:55:16.435Z,18.05
2019-02-04T21:57:45.028Z,23.10
2019-02-04T22:00:31.316Z,25.88
2019-02-04T22:02:59.507Z,26.48
2019-02-04T22:05:29.853Z,26.90
2019-02-04T22:07:58.060Z,25.37
2019-02-04T22:10:28.101Z,23.35
2019-02-04T22:12:56.581Z,23.60
2019-02-04T22:15:24.775Z,24.80
2019-02-04T22:17:52.994Z,25.17
2019-02-04T22:20:21.188Z,22.35
2019-02-04T22:22:49.401Z,19.87
2019-02-04T22:25:19.597Z,22.52
2019-02-04T22:27:48.231Z,24.37
2019-02-04T22:30:21.550Z,22.87
2019-02-04T22:32:49.756Z,20.55
2019-02-04T22:35:18.019Z,20.65
2019-02-04T22:37:46.238Z,19.42
2019-02-04T22:40:19.176Z,21.20
2019-02-04T22:42:47.796Z,20.85
2019-02-04T22:45:17.233Z,21.57
2019-02-04T22:47:45.592Z,19.80
2019-02-04T22:50:16.887Z,19.75
2019-02-04T22:52:45.096Z,20.32
2019-02-04T22:55:13.743Z,22.27
2019-02-04T22:57:41.952Z,24.23
2019-02-04T23:00:42.356Z,20.50
2019-02-04T23:03:11.179Z,27.65
2019-02-04T23:05:39.375Z,18.92
2019-02-04T23:08:07.660Z,25.20
2019-02-04T23:10:35.860Z,24.50
2019-02-04T23:13:04.644Z,22.20
2019-02-04T23:15:32.846Z,20.90
2019-02-04T23:18:01.051Z,28.57
2019-02-04T23:20:29.624Z,24.27
2019-02-04T23:22:57.859Z,25.77
2019-02-04T23:25:26.057Z,28.55
2019-02-04T23:27:54.277Z,26.45
2019-02-04T23:30:22.761Z,26.70
2019-02-04T23:32:50.955Z,25.17
2019-02-04T23:35:19.639Z,26.65
2019-02-04T23:37:47.845Z,28.73
2019-02-04T23:40:16.928Z,26.25
2019-02-04T23:42:45.128Z,25.82
2019-02-04T23:45:13.332Z,24.25
2019-02-04T23:47:41.533Z,23.07
2019-02-04T23:50:14.321Z,25.95
2019-02-04T23:52:42.788Z,22.55
2019-02-04T23:55:11.932Z,18.32
2019-02-04T23:57:40.143Z,21.33
